»·PEaware :: N710DS KSNA-KIFP

N710DS :: KSNA-KIFP

FLIGHT INFORMATION

Flight Status: Arrived
Operator: Privately registered:
United States
More flights under this callsign
Pilot: John H. (10732)
Aircraft: Unknown
(B60T)
More flights by this aircraft type
Origin: KSNA John Wayne-Orange Co
United States
Destination: KIFP Laughlin/Bullhead Intl
United States
More flights between these airports :: More routes between these airports
Route: +MUSEL8 TRM V208 EED
File this flight plan on PilotEdge
Remarks:
Altitude:
(Current/Filed)
24,000ft
Speed:
(Current/Filed)
300kts
Departed: 02-Jun-19 06:23 PM
Arrived: 02-Jun-19 07:16 PM
Distance/Time
Traveled:
187nm/0:53
Distance/Time
To Go:
Arrived

Flight Plot

Page will automatically refresh every two minutes.

Flight plan parsing failed; only flown route is shown


Map Options




Map Legend


Flown Route
Filed Route
Departure Airport
Arrival Airport
Navaid (VOR, NDB)
Fix

Horizontal Profiles

Position Reports

Time Latitude Longitude Heading Altitude Ground
Speed
02-Jun-19 18:05 33.674742 -117.871669 218 59ft 0kts
02-Jun-19 18:06 33.674740 -117.871671 218 59ft 0kts
02-Jun-19 18:07 33.674737 -117.871674 218 59ft 0kts
02-Jun-19 18:08 33.674733 -117.871677 217 59ft 0kts
02-Jun-19 18:09 33.674730 -117.871680 217 59ft 0kts
02-Jun-19 18:10 33.674727 -117.871683 217 59ft 0kts
02-Jun-19 18:11 33.674727 -117.871683 217 59ft 0kts
02-Jun-19 18:12 33.674727 -117.871683 217 59ft 0kts
02-Jun-19 18:13 33.674727 -117.871683 217 59ft 0kts
02-Jun-19 18:14 33.674727 -117.871683 217 59ft 0kts
02-Jun-19 18:15 33.674727 -117.871683 217 59ft 0kts
02-Jun-19 18:16 33.674727 -117.871683 217 59ft 0kts
02-Jun-19 18:17 33.674727 -117.871683 217 59ft 0kts
02-Jun-19 18:18 33.674727 -117.871683 217 59ft 0kts
02-Jun-19 18:19 33.675851 -117.870310 28 59ft 16kts
02-Jun-19 18:20 33.680089 -117.867683 28 59ft 17kts
02-Jun-19 18:21 33.680286 -117.865900 206 59ft 0kts
02-Jun-19 18:22 33.650979 -117.883755 206 2397ft 172kts
02-Jun-19 18:23 33.598201 -117.897113 188 5471ft 207kts
02-Jun-19 18:24 33.541026 -117.908094 188 7997ft 229kts
02-Jun-19 18:25 33.500062 -117.964048 251 8640ft 232kts
02-Jun-19 18:26 33.509064 -118.030324 335 11156ft 213kts
02-Jun-19 18:27 33.549332 -117.999147 88 14177ft 209kts
02-Jun-19 18:28 33.551875 -117.928159 86 16988ft 226kts
02-Jun-19 18:29 33.555995 -117.843690 86 16998ft 264kts
02-Jun-19 18:30 33.560212 -117.757782 85 18246ft 238kts
02-Jun-19 18:31 33.564023 -117.680886 84 21224ft 227kts
02-Jun-19 18:32 33.567868 -117.601679 87 23012ft 272kts
02-Jun-19 18:33 33.572293 -117.505467 85 22963ft 297kts
02-Jun-19 18:34 33.576968 -117.404880 88 22958ft 304kts
02-Jun-19 18:35 33.581503 -117.304811 88 22956ft 301kts
02-Jun-19 18:36 33.586011 -117.203980 86 22950ft 303kts
02-Jun-19 18:37 33.594290 -117.104350 72 22919ft 299kts
02-Jun-19 18:38 33.630685 -117.017044 62 22914ft 284kts
02-Jun-19 18:39 33.665390 -116.932698 66 22885ft 291kts
02-Jun-19 18:40 33.701470 -116.840844 66 22848ft 309kts
02-Jun-19 18:41 33.737221 -116.749007 68 22869ft 295kts
02-Jun-19 18:42 33.771691 -116.660024 66 22906ft 292kts
02-Jun-19 18:43 33.805826 -116.571731 64 22931ft 289kts
02-Jun-19 18:44 33.839743 -116.483895 66 22938ft 290kts
02-Jun-19 18:45 33.874804 -116.392751 65 22900ft 304kts
02-Jun-19 18:46 33.910324 -116.300103 65 22910ft 304kts
02-Jun-19 18:47 33.945643 -116.207739 65 22906ft 304kts
02-Jun-19 18:48 33.981049 -116.114911 65 22903ft 304kts
02-Jun-19 18:49 34.013672 -116.029149 65 22904ft 304kts
02-Jun-19 18:50 34.048931 -115.936203 65 22887ft 305kts
02-Jun-19 18:51 34.084074 -115.843293 64 22888ft 304kts
02-Jun-19 18:52 34.121123 -115.751198 58 22885ft 304kts
02-Jun-19 18:53 34.165646 -115.664595 57 22875ft 304kts
02-Jun-19 18:54 34.210314 -115.577454 57 22863ft 305kts
02-Jun-19 18:55 34.255488 -115.488982 57 22825ft 313kts
02-Jun-19 18:56 34.300832 -115.399899 57 22858ft 308kts
02-Jun-19 18:57 34.344617 -115.313631 57 21842ft 282kts
02-Jun-19 18:58 34.385897 -115.232264 58 20521ft 287kts
02-Jun-19 18:59 34.427643 -115.149608 58 19016ft 285kts
02-Jun-19 19:00 34.468758 -115.068046 58 17514ft 278kts
02-Jun-19 19:01 34.508203 -114.989667 59 16016ft 268kts
02-Jun-19 19:02 34.564686 -114.935882 24 14526ft 262kts
02-Jun-19 19:03 34.630254 -114.898414 27 13021ft 257kts
02-Jun-19 19:05 34.693212 -114.858682 28 11525ft 253kts
02-Jun-19 19:06 34.755438 -114.818824 28 10024ft 249kts
02-Jun-19 19:07 34.816011 -114.779622 28 8521ft 244kts
02-Jun-19 19:08 34.875963 -114.740707 28 7176ft 238kts
02-Jun-19 19:09 34.931790 -114.704470 28 7054ft 221kts
02-Jun-19 19:10 34.987248 -114.668338 28 6213ft 235kts
02-Jun-19 19:11 35.045091 -114.630555 28 4811ft 235kts
02-Jun-19 19:12 35.102342 -114.592000 25 3403ft 234kts
02-Jun-19 19:13 35.156885 -114.578966 354 2558ft 137kts
02-Jun-19 19:14 35.192045 -114.577006 51 2442ft 113kts
02-Jun-19 19:15 35.170285 -114.560325 179 756ft 99kts
02-Jun-19 19:16 35.162443 -114.559012 35 644ft 15kts
02-Jun-19 19:17 35.162862 -114.558415 70 644ft 15kts
02-Jun-19 19:18 35.161015 -114.556463 87 644ft 11kts
02-Jun-19 19:19 35.160719 -114.556401 271 644ft 0kts

Navigation Log

Ident Type
Flight plan parsing failed, navigation log unavailable